sensor_id;sensor_type;location;lat;lon;timestamp;temperature;humidity
25192;DHT22;13143;50.924;5.320;2023-07-20T00:01:48;20.20;99.90
25192;DHT22;13143;50.924;5.320;2023-07-20T00:04:14;20.10;99.90
25192;DHT22;13143;50.924;5.320;2023-07-20T00:06:41;20.10;99.90
25192;DHT22;13143;50.924;5.320;2023-07-20T00:09:07;20.10;99.90
25192;DHT22;13143;50.924;5.320;2023-07-20T00:11:36;20.10;99.90
25192;DHT22;13143;50.924;5.320;2023-07-20T00:14:04;20.10;99.90
25192;DHT22;13143;50.924;5.320;2023-07-20T00:16:31;20.00;99.90
25192;DHT22;13143;50.924;5.320;2023-07-20T00:18:57;20.00;99.90
25192;DHT22;13143;50.924;5.320;2023-07-20T00:21:23;20.00;99.90
25192;DHT22;13143;50.924;5.320;2023-07-20T00:23:49;20.00;99.90
25192;DHT22;13143;50.924;5.320;2023-07-20T00:26:15;20.00;99.90
25192;DHT22;13143;50.924;5.320;2023-07-20T00:28:41;20.00;99.90
25192;DHT22;13143;50.924;5.320;2023-07-20T00:31:07;19.90;99.90
25192;DHT22;13143;50.924;5.320;2023-07-20T00:33:33;19.90;99.90
25192;DHT22;13143;50.924;5.320;2023-07-20T00:36:00;19.90;99.90
25192;DHT22;13143;50.924;5.320;2023-07-20T00:38:26;19.90;99.90
25192;DHT22;13143;50.924;5.320;2023-07-20T00:40:52;19.90;99.90
25192;DHT22;13143;50.924;5.320;2023-07-20T00:43:19;19.80;99.90
25192;DHT22;13143;50.924;5.320;2023-07-20T00:45:45;19.80;99.90
25192;DHT22;13143;50.924;5.320;2023-07-20T00:48:12;19.80;99.90
25192;DHT22;13143;50.924;5.320;2023-07-20T00:50:40;19.80;99.90
25192;DHT22;13143;50.924;5.320;2023-07-20T00:53:06;19.80;99.90
25192;DHT22;13143;50.924;5.320;2023-07-20T00:55:33;19.70;99.90
25192;DHT22;13143;50.924;5.320;2023-07-20T00:58:00;19.70;99.90
25192;DHT22;13143;50.924;5.320;2023-07-20T01:00:26;19.70;99.90
25192;DHT22;13143;50.924;5.320;2023-07-20T01:02:53;19.70;99.90
25192;DHT22;13143;50.924;5.320;2023-07-20T01:05:20;19.60;99.90
25192;DHT22;13143;50.924;5.320;2023-07-20T01:08:12;19.60;99.90
25192;DHT22;13143;50.924;5.320;2023-07-20T01:10:44;19.60;99.90
25192;DHT22;13143;50.924;5.320;2023-07-20T01:13:14;19.60;99.90
25192;DHT22;13143;50.924;5.320;2023-07-20T01:15:41;19.60;99.90
25192;DHT22;13143;50.924;5.320;2023-07-20T01:18:07;19.60;99.90
25192;DHT22;13143;50.924;5.320;2023-07-20T01:20:33;19.60;99.90
25192;DHT22;13143;50.924;5.320;2023-07-20T01:23:37;19.50;99.90
25192;DHT22;13143;50.924;5.320;2023-07-20T01:31:27;19.40;99.90
25192;DHT22;13143;50.924;5.320;2023-07-20T01:33:56;19.40;99.90
25192;DHT22;13143;50.924;5.320;2023-07-20T01:36:25;19.40;99.90
25192;DHT22;13143;50.924;5.320;2023-07-20T01:38:52;19.40;99.90
25192;DHT22;13143;50.924;5.320;2023-07-20T01:41:19;19.40;99.90
25192;DHT22;13143;50.924;5.320;2023-07-20T01:43:46;19.30;99.90
25192;DHT22;13143;50.924;5.320;2023-07-20T01:46:12;19.30;99.90
25192;DHT22;13143;50.924;5.320;2023-07-20T01:48:38;19.30;99.90
25192;DHT22;13143;50.924;5.320;2023-07-20T01:51:04;19.30;99.90
25192;DHT22;13143;50.924;5.320;2023-07-20T01:53:31;19.20;99.90
25192;DHT22;13143;50.924;5.320;2023-07-20T01:55:57;19.30;99.90
25192;DHT22;13143;50.924;5.320;2023-07-20T01:58:23;19.20;99.90
25192;DHT22;13143;50.924;5.320;2023-07-20T02:00:50;19.20;99.90
25192;DHT22;13143;50.924;5.320;2023-07-20T02:03:16;19.20;99.90
25192;DHT22;13143;50.924;5.320;2023-07-20T02:05:43;19.10;99.90
25192;DHT22;13143;50.924;5.320;2023-07-20T02:08:09;19.20;99.90
25192;DHT22;13143;50.924;5.320;2023-07-20T02:10:36;19.10;99.90
25192;DHT22;13143;50.924;5.320;2023-07-20T02:13:02;19.10;99.90
25192;DHT22;13143;50.924;5.320;2023-07-20T02:15:28;19.10;99.90
25192;DHT22;13143;50.924;5.320;2023-07-20T02:17:54;19.10;99.90
25192;DHT22;13143;50.924;5.320;2023-07-20T02:20:20;19.00;99.90
25192;DHT22;13143;50.924;5.320;2023-07-20T02:22:47;19.10;99.90
25192;DHT22;13143;50.924;5.320;2023-07-20T02:25:13;19.00;99.90
25192;DHT22;13143;50.924;5.320;2023-07-20T02:27:39;19.00;99.90
25192;DHT22;13143;50.924;5.320;2023-07-20T02:30:06;19.00;99.90
25192;DHT22;13143;50.924;5.320;2023-07-20T02:32:34;18.90;99.90
25192;DHT22;13143;50.924;5.320;2023-07-20T02:35:00;18.90;99.90
25192;DHT22;13143;50.924;5.320;2023-07-20T02:37:26;18.90;99.90
25192;DHT22;13143;50.924;5.320;2023-07-20T02:39:53;18.90;99.90
25192;DHT22;13143;50.924;5.320;2023-07-20T02:42:19;18.90;99.90
25192;DHT22;13143;50.924;5.320;2023-07-20T02:44:45;18.80;99.90
25192;DHT22;13143;50.924;5.320;2023-07-20T02:47:11;18.80;99.90
25192;DHT22;13143;50.924;5.320;2023-07-20T02:49:37;18.80;99.90
25192;DHT22;13143;50.924;5.320;2023-07-20T02:52:04;18.80;99.90
25192;DHT22;13143;50.924;5.320;2023-07-20T02:54:30;18.80;99.90
25192;DHT22;13143;50.924;5.320;2023-07-20T02:56:57;18.80;99.90
25192;DHT22;13143;50.924;5.320;2023-07-20T02:59:23;18.80;99.90
25192;DHT22;13143;50.924;5.320;2023-07-20T03:01:49;18.70;99.90
25192;DHT22;13143;50.924;5.320;2023-07-20T03:04:16;18.70;99.90
25192;DHT22;13143;50.924;5.320;2023-07-20T03:06:42;18.70;99.90
25192;DHT22;13143;50.924;5.320;2023-07-20T03:09:08;18.70;99.90
25192;DHT22;13143;50.924;5.320;2023-07-20T03:11:35;18.70;99.90
25192;DHT22;13143;50.924;5.320;2023-07-20T03:14:01;18.60;99.90
25192;DHT22;13143;50.924;5.320;2023-07-20T03:16:27;18.60;99.90
25192;DHT22;13143;50.924;5.320;2023-07-20T03:18:53;18.60;99.90
25192;DHT22;13143;50.924;5.320;2023-07-20T03:21:19;18.60;99.90
25192;DHT22;13143;50.924;5.320;2023-07-20T03:23:45;18.60;99.90
25192;DHT22;13143;50.924;5.320;2023-07-20T03:26:12;18.50;99.90
25192;DHT22;13143;50.924;5.320;2023-07-20T03:28:38;18.50;99.90
25192;DHT22;13143;50.924;5.320;2023-07-20T03:31:05;18.50;99.90
25192;DHT22;13143;50.924;5.320;2023-07-20T03:33:32;18.50;99.90
25192;DHT22;13143;50.924;5.320;2023-07-20T03:35:58;18.50;99.90
25192;DHT22;13143;50.924;5.320;2023-07-20T03:38:25;18.50;99.90
25192;DHT22;13143;50.924;5.320;2023-07-20T03:40:56;18.50;99.90
25192;DHT22;13143;50.924;5.320;2023-07-20T03:43:23;18.50;99.90
25192;DHT22;13143;50.924;5.320;2023-07-20T03:45:50;18.40;99.90
25192;DHT22;13143;50.924;5.320;2023-07-20T03:48:19;18.40;99.90
25192;DHT22;13143;50.924;5.320;2023-07-20T03:50:47;18.40;99.90
25192;DHT22;13143;50.924;5.320;2023-07-20T03:53:14;18.40;99.90
25192;DHT22;13143;50.924;5.320;2023-07-20T03:55:51;18.40;99.90
25192;DHT22;13143;50.924;5.320;2023-07-20T03:58:18;18.40;99.90
25192;DHT22;13143;50.924;5.320;2023-07-20T04:00:45;18.40;99.90
25192;DHT22;13143;50.924;5.320;2023-07-20T04:03:13;18.40;99.90
25192;DHT22;13143;50.924;5.320;2023-07-20T04:05:39;18.30;99.90
25192;DHT22;13143;50.924;5.320;2023-07-20T04:08:05;18.30;99.90
25192;DHT22;13143;50.924;5.320;2023-07-20T04:10:31;18.30;99.90
25192;DHT22;13143;50.924;5.320;2023-07-20T04:12:57;18.30;99.90
25192;DHT22;13143;50.924;5.320;2023-07-20T04:15:23;18.30;99.90
25192;DHT22;13143;50.924;5.320;2023-07-20T04:17:50;18.30;99.90
25192;DHT22;13143;50.924;5.320;2023-07-20T04:20:16;18.30;99.90
25192;DHT22;13143;50.924;5.320;2023-07-20T04:22:44;18.30;99.90
25192;DHT22;13143;50.924;5.320;2023-07-20T04:25:11;18.30;99.90
25192;DHT22;13143;50.924;5.320;2023-07-20T04:27:37;18.30;99.90
25192;DHT22;13143;50.924;5.320;2023-07-20T04:30:04;18.30;99.90
25192;DHT22;13143;50.924;5.320;2023-07-20T04:32:32;18.30;99.90
25192;DHT22;13143;50.924;5.320;2023-07-20T04:34:59;18.30;99.90
25192;DHT22;13143;50.924;5.320;2023-07-20T04:37:26;18.20;99.90
25192;DHT22;13143;50.924;5.320;2023-07-20T04:39:52;18.20;99.90
25192;DHT22;13143;50.924;5.320;2023-07-20T04:42:18;18.20;99.90
25192;DHT22;13143;50.924;5.320;2023-07-20T04:44:45;18.20;99.90
25192;DHT22;13143;50.924;5.320;2023-07-20T04:47:11;18.20;99.90
25192;DHT22;13143;50.924;5.320;2023-07-20T04:49:37;18.20;99.90
25192;DHT22;13143;50.924;5.320;2023-07-20T04:52:03;18.20;99.90
25192;DHT22;13143;50.924;5.320;2023-07-20T04:54:29;18.20;99.90
25192;DHT22;13143;50.924;5.320;2023-07-20T04:56:56;18.20;99.90
25192;DHT22;13143;50.924;5.320;2023-07-20T04:59:22;18.20;99.90
25192;DHT22;13143;50.924;5.320;2023-07-20T05:01:48;18.20;99.90
25192;DHT22;13143;50.924;5.320;2023-07-20T05:04:14;18.20;99.90
25192;DHT22;13143;50.924;5.320;2023-07-20T05:06:40;18.20;99.90
25192;DHT22;13143;50.924;5.320;2023-07-20T05:09:06;18.20;99.90
25192;DHT22;13143;50.924;5.320;2023-07-20T05:11:33;18.20;99.90
25192;DHT22;13143;50.924;5.320;2023-07-20T05:14:00;18.20;99.90
25192;DHT22;13143;50.924;5.320;2023-07-20T05:16:26;18.20;99.90
25192;DHT22;13143;50.924;5.320;2023-07-20T05:18:52;18.20;99.90
25192;DHT22;13143;50.924;5.320;2023-07-20T05:21:18;18.20;99.90
25192;DHT22;13143;50.924;5.320;2023-07-20T05:23:44;18.20;99.90
25192;DHT22;13143;50.924;5.320;2023-07-20T05:26:11;18.20;99.90
25192;DHT22;13143;50.924;5.320;2023-07-20T05:28:37;18.20;99.90
25192;DHT22;13143;50.924;5.320;2023-07-20T05:31:03;18.20;99.90
25192;DHT22;13143;50.924;5.320;2023-07-20T05:33:29;18.20;99.90
25192;DHT22;13143;50.924;5.320;2023-07-20T05:35:55;18.20;99.90
25192;DHT22;13143;50.924;5.320;2023-07-20T05:38:29;18.20;99.90
25192;DHT22;13143;50.924;5.320;2023-07-20T05:40:59;18.20;99.90
25192;DHT22;13143;50.924;5.320;2023-07-20T05:43:27;18.20;99.90
25192;DHT22;13143;50.924;5.320;2023-07-20T05:45:54;18.20;99.90
25192;DHT22;13143;50.924;5.320;2023-07-20T05:48:20;18.20;99.90
25192;DHT22;13143;50.924;5.320;2023-07-20T05:50:46;18.20;99.90
25192;DHT22;13143;50.924;5.320;2023-07-20T05:53:12;18.20;99.90
25192;DHT22;13143;50.924;5.320;2023-07-20T05:55:38;18.30;99.90
25192;DHT22;13143;50.924;5.320;2023-07-20T05:58:05;18.30;99.90
25192;DHT22;13143;50.924;5.320;2023-07-20T06:00:32;18.30;99.90
25192;DHT22;13143;50.924;5.320;2023-07-20T06:02:58;18.30;99.90
25192;DHT22;13143;50.924;5.320;2023-07-20T06:05:24;18.30;99.90
25192;DHT22;13143;50.924;5.320;2023-07-20T06:07:50;18.30;99.90
25192;DHT22;13143;50.924;5.320;2023-07-20T06:10:16;18.30;99.90
25192;DHT22;13143;50.924;5.320;2023-07-20T06:12:43;18.40;99.90
25192;DHT22;13143;50.924;5.320;2023-07-20T06:15:32;18.40;99.90
25192;DHT22;13143;50.924;5.320;2023-07-20T06:18:01;18.30;99.90
25192;DHT22;13143;50.924;5.320;2023-07-20T06:20:27;18.40;99.90
25192;DHT22;13143;50.924;5.320;2023-07-20T06:22:53;18.40;99.90
25192;DHT22;13143;50.924;5.320;2023-07-20T06:25:19;18.40;99.90
25192;DHT22;13143;50.924;5.320;2023-07-20T06:27:48;18.40;99.90
25192;DHT22;13143;50.924;5.320;2023-07-20T06:30:15;18.40;99.90
25192;DHT22;13143;50.924;5.320;2023-07-20T06:32:41;18.40;99.90
25192;DHT22;13143;50.924;5.320;2023-07-20T06:35:07;18.40;99.90
25192;DHT22;13143;50.924;5.320;2023-07-20T06:37:35;18.50;99.90
25192;DHT22;13143;50.924;5.320;2023-07-20T06:40:02;18.50;99.90
25192;DHT22;13143;50.924;5.320;2023-07-20T06:42:30;18.50;99.90
25192;DHT22;13143;50.924;5.320;2023-07-20T06:44:57;18.50;99.90
25192;DHT22;13143;50.924;5.320;2023-07-20T06:47:23;18.50;99.90
25192;DHT22;13143;50.924;5.320;2023-07-20T06:49:49;18.50;99.90
25192;DHT22;13143;50.924;5.320;2023-07-20T06:52:15;18.50;99.90
25192;DHT22;13143;50.924;5.320;2023-07-20T06:54:41;18.50;99.90
25192;DHT22;13143;50.924;5.320;2023-07-20T06:57:08;18.60;99.90
25192;DHT22;13143;50.924;5.320;2023-07-20T06:59:34;18.60;99.90
25192;DHT22;13143;50.924;5.320;2023-07-20T07:02:00;18.60;99.90
25192;DHT22;13143;50.924;5.320;2023-07-20T07:04:26;18.60;99.90
25192;DHT22;13143;50.924;5.320;2023-07-20T07:06:53;18.60;99.90
25192;DHT22;13143;50.924;5.320;2023-07-20T07:09:19;18.60;99.90
25192;DHT22;13143;50.924;5.320;2023-07-20T07:11:45;18.70;99.90
25192;DHT22;13143;50.924;5.320;2023-07-20T07:14:12;18.70;99.90
25192;DHT22;13143;50.924;5.320;2023-07-20T07:16:38;18.70;99.90
25192;DHT22;13143;50.924;5.320;2023-07-20T07:19:05;18.70;99.90
25192;DHT22;13143;50.924;5.320;2023-07-20T07:21:33;18.70;99.90
25192;DHT22;13143;50.924;5.320;2023-07-20T07:23:59;18.70;99.90
25192;DHT22;13143;50.924;5.320;2023-07-20T07:26:25;18.80;99.90
25192;DHT22;13143;50.924;5.320;2023-07-20T07:28:52;18.80;99.90
25192;DHT22;13143;50.924;5.320;2023-07-20T07:31:18;18.80;99.90
25192;DHT22;13143;50.924;5.320;2023-07-20T07:33:44;18.80;99.90
25192;DHT22;13143;50.924;5.320;2023-07-20T07:36:10;18.80;99.90
25192;DHT22;13143;50.924;5.320;2023-07-20T07:38:36;18.80;99.90
25192;DHT22;13143;50.924;5.320;2023-07-20T07:41:04;18.80;99.90
25192;DHT22;13143;50.924;5.320;2023-07-20T07:43:30;18.90;99.90
25192;DHT22;13143;50.924;5.320;2023-07-20T07:45:56;18.80;99.90
25192;DHT22;13143;50.924;5.320;2023-07-20T07:48:23;18.90;99.90
25192;DHT22;13143;50.924;5.320;2023-07-20T07:50:51;18.90;99.90
25192;DHT22;13143;50.924;5.320;2023-07-20T07:53:17;18.90;99.90
25192;DHT22;13143;50.924;5.320;2023-07-20T07:55:44;18.90;99.90
25192;DHT22;13143;50.924;5.320;2023-07-20T07:58:10;19.00;99.90
25192;DHT22;13143;50.924;5.320;2023-07-20T08:00:36;19.00;99.90
25192;DHT22;13143;50.924;5.320;2023-07-20T08:03:02;19.00;99.90
25192;DHT22;13143;50.924;5.320;2023-07-20T08:05:28;19.00;99.90
25192;DHT22;13143;50.924;5.320;2023-07-20T08:07:54;19.00;99.90
25192;DHT22;13143;50.924;5.320;2023-07-20T08:10:21;19.00;99.90
25192;DHT22;13143;50.924;5.320;2023-07-20T08:12:48;19.10;99.90
25192;DHT22;13143;50.924;5.320;2023-07-20T08:15:14;19.10;99.90
25192;DHT22;13143;50.924;5.320;2023-07-20T08:17:41;19.10;99.90
25192;DHT22;13143;50.924;5.320;2023-07-20T08:20:10;19.10;99.90
25192;DHT22;13143;50.924;5.320;2023-07-20T08:22:39;19.10;99.90
25192;DHT22;13143;50.924;5.320;2023-07-20T08:25:06;19.20;99.90
25192;DHT22;13143;50.924;5.320;2023-07-20T08:27:32;19.20;99.90
25192;DHT22;13143;50.924;5.320;2023-07-20T08:29:58;19.20;99.90
25192;DHT22;13143;50.924;5.320;2023-07-20T08:32:25;19.20;99.90
25192;DHT22;13143;50.924;5.320;2023-07-20T08:34:52;19.20;99.90
25192;DHT22;13143;50.924;5.320;2023-07-20T08:37:18;19.20;99.90
25192;DHT22;13143;50.924;5.320;2023-07-20T08:39:44;19.30;99.90
25192;DHT22;13143;50.924;5.320;2023-07-20T08:42:10;19.30;99.90
25192;DHT22;13143;50.924;5.320;2023-07-20T08:44:38;19.30;99.90
25192;DHT22;13143;50.924;5.320;2023-07-20T08:47:06;19.30;99.90
25192;DHT22;13143;50.924;5.320;2023-07-20T08:49:34;19.30;99.90
25192;DHT22;13143;50.924;5.320;2023-07-20T08:52:00;19.40;99.90
25192;DHT22;13143;50.924;5.320;2023-07-20T08:54:30;19.40;99.90
25192;DHT22;13143;50.924;5.320;2023-07-20T08:57:04;19.40;99.90
25192;DHT22;13143;50.924;5.320;2023-07-20T08:59:31;19.40;99.90
25192;DHT22;13143;50.924;5.320;2023-07-20T09:02:02;19.40;99.90
25192;DHT22;13143;50.924;5.320;2023-07-20T09:04:30;19.50;99.90
25192;DHT22;13143;50.924;5.320;2023-07-20T09:06:57;19.50;99.90
25192;DHT22;13143;50.924;5.320;2023-07-20T09:09:23;19.50;99.90
25192;DHT22;13143;50.924;5.320;2023-07-20T09:11:50;19.50;99.90
25192;DHT22;13143;50.924;5.320;2023-07-20T09:14:16;19.60;99.90
25192;DHT22;13143;50.924;5.320;2023-07-20T09:16:55;19.60;99.90
25192;DHT22;13143;50.924;5.320;2023-07-20T09:19:22;19.60;99.90
25192;DHT22;13143;50.924;5.320;2023-07-20T09:21:49;19.60;99.90
25192;DHT22;13143;50.924;5.320;2023-07-20T09:24:19;19.60;99.90
25192;DHT22;13143;50.924;5.320;2023-07-20T09:26:48;19.60;99.90
25192;DHT22;13143;50.924;5.320;2023-07-20T09:29:17;19.70;99.90
25192;DHT22;13143;50.924;5.320;2023-07-20T09:32:02;19.70;99.90
25192;DHT22;13143;50.924;5.320;2023-07-20T09:34:32;19.70;99.90
25192;DHT22;13143;50.924;5.320;2023-07-20T09:36:59;19.80;99.90
25192;DHT22;13143;50.924;5.320;2023-07-20T09:39:26;19.80;99.90
25192;DHT22;13143;50.924;5.320;2023-07-20T09:41:53;19.80;99.90
25192;DHT22;13143;50.924;5.320;2023-07-20T09:44:20;19.80;99.90
25192;DHT22;13143;50.924;5.320;2023-07-20T09:46:47;19.90;99.90
25192;DHT22;13143;50.924;5.320;2023-07-20T09:49:14;19.90;99.90
25192;DHT22;13143;50.924;5.320;2023-07-20T09:51:45;19.90;99.90
25192;DHT22;13143;50.924;5.320;2023-07-20T09:54:13;19.90;99.90
25192;DHT22;13143;50.924;5.320;2023-07-20T09:56:39;20.00;99.90
25192;DHT22;13143;50.924;5.320;2023-07-20T09:59:06;20.00;99.90
25192;DHT22;13143;50.924;5.320;2023-07-20T10:01:34;20.00;99.90
25192;DHT22;13143;50.924;5.320;2023-07-20T10:04:03;20.00;99.90
25192;DHT22;13143;50.924;5.320;2023-07-20T10:06:32;20.00;99.90
25192;DHT22;13143;50.924;5.320;2023-07-20T10:09:03;20.10;99.90
25192;DHT22;13143;50.924;5.320;2023-07-20T10:11:35;20.10;99.90
25192;DHT22;13143;50.924;5.320;2023-07-20T10:14:04;20.10;99.90
25192;DHT22;13143;50.924;5.320;2023-07-20T10:16:41;20.20;99.90
25192;DHT22;13143;50.924;5.320;2023-07-20T10:19:40;20.20;99.90
25192;DHT22;13143;50.924;5.320;2023-07-20T10:22:25;20.20;99.90
25192;DHT22;13143;50.924;5.320;2023-07-20T10:24:52;20.20;99.90
25192;DHT22;13143;50.924;5.320;2023-07-20T10:27:24;20.30;99.90
25192;DHT22;13143;50.924;5.320;2023-07-20T10:29:52;20.30;99.90
25192;DHT22;13143;50.924;5.320;2023-07-20T10:32:22;20.30;99.90
25192;DHT22;13143;50.924;5.320;2023-07-20T10:34:52;20.30;99.90
25192;DHT22;13143;50.924;5.320;2023-07-20T10:37:50;20.40;99.90
25192;DHT22;13143;50.924;5.320;2023-07-20T10:40:38;20.40;99.90
25192;DHT22;13143;50.924;5.320;2023-07-20T10:43:06;20.40;99.90
25192;DHT22;13143;50.924;5.320;2023-07-20T10:50:43;20.50;99.90
25192;DHT22;13143;50.924;5.320;2023-07-20T10:53:14;20.50;99.90
25192;DHT22;13143;50.924;5.320;2023-07-20T10:55:41;20.60;99.90
25192;DHT22;13143;50.924;5.320;2023-07-20T10:58:13;20.60;99.90
25192;DHT22;13143;50.924;5.320;2023-07-20T11:01:03;20.70;99.90
25192;DHT22;13143;50.924;5.320;2023-07-20T11:03:31;20.70;99.90
25192;DHT22;13143;50.924;5.320;2023-07-20T11:05:58;20.70;99.90
25192;DHT22;13143;50.924;5.320;2023-07-20T11:08:41;20.70;99.90
25192;DHT22;13143;50.924;5.320;2023-07-20T11:11:24;20.70;99.90
25192;DHT22;13143;50.924;5.320;2023-07-20T11:13:58;20.80;99.90
25192;DHT22;13143;50.924;5.320;2023-07-20T11:16:46;20.80;99.90
25192;DHT22;13143;50.924;5.320;2023-07-20T11:19:19;20.80;99.90
25192;DHT22;13143;50.924;5.320;2023-07-20T11:21:47;20.90;99.90
25192;DHT22;13143;50.924;5.320;2023-07-20T11:24:15;20.90;99.90
25192;DHT22;13143;50.924;5.320;2023-07-20T11:26:46;20.90;99.90
25192;DHT22;13143;50.924;5.320;2023-07-20T11:29:13;20.90;99.90
25192;DHT22;13143;50.924;5.320;2023-07-20T11:31:42;21.00;99.90
25192;DHT22;13143;50.924;5.320;2023-07-20T11:34:16;21.00;99.90
25192;DHT22;13143;50.924;5.320;2023-07-20T11:36:48;21.00;99.90
25192;DHT22;13143;50.924;5.320;2023-07-20T11:39:16;21.10;99.90
25192;DHT22;13143;50.924;5.320;2023-07-20T11:41:50;21.10;99.90
25192;DHT22;13143;50.924;5.320;2023-07-20T11:44:17;21.10;99.90
25192;DHT22;13143;50.924;5.320;2023-07-20T11:46:44;21.10;99.90
25192;DHT22;13143;50.924;5.320;2023-07-20T11:49:11;21.10;99.90
25192;DHT22;13143;50.924;5.320;2023-07-20T11:51:39;21.20;99.90
25192;DHT22;13143;50.924;5.320;2023-07-20T11:54:08;21.20;99.90
25192;DHT22;13143;50.924;5.320;2023-07-20T11:56:35;21.20;99.90
25192;DHT22;13143;50.924;5.320;2023-07-20T11:59:01;21.30;99.90
25192;DHT22;13143;50.924;5.320;2023-07-20T12:01:30;21.30;99.90
25192;DHT22;13143;50.924;5.320;2023-07-20T12:04:04;21.30;99.90
25192;DHT22;13143;50.924;5.320;2023-07-20T12:06:30;21.30;99.90
25192;DHT22;13143;50.924;5.320;2023-07-20T12:08:58;21.40;99.90
25192;DHT22;13143;50.924;5.320;2023-07-20T12:11:38;21.40;99.90
25192;DHT22;13143;50.924;5.320;2023-07-20T12:14:07;21.40;99.90
25192;DHT22;13143;50.924;5.320;2023-07-20T12:16:34;21.50;99.90
25192;DHT22;13143;50.924;5.320;2023-07-20T12:19:04;21.50;99.90
25192;DHT22;13143;50.924;5.320;2023-07-20T12:21:31;21.50;99.90
25192;DHT22;13143;50.924;5.320;2023-07-20T12:23:58;21.60;99.90
25192;DHT22;13143;50.924;5.320;2023-07-20T12:26:25;21.60;99.90
25192;DHT22;13143;50.924;5.320;2023-07-20T12:28:52;21.60;99.90
25192;DHT22;13143;50.924;5.320;2023-07-20T12:31:18;21.60;99.90
25192;DHT22;13143;50.924;5.320;2023-07-20T12:33:44;21.70;99.90
25192;DHT22;13143;50.924;5.320;2023-07-20T12:36:11;21.70;99.90
25192;DHT22;13143;50.924;5.320;2023-07-20T12:38:37;21.70;99.90
25192;DHT22;13143;50.924;5.320;2023-07-20T12:41:03;21.80;99.90
25192;DHT22;13143;50.924;5.320;2023-07-20T12:43:29;21.80;99.40
25192;DHT22;13143;50.924;5.320;2023-07-20T12:45:58;21.80;99.40
25192;DHT22;13143;50.924;5.320;2023-07-20T12:48:24;21.80;99.60
25192;DHT22;13143;50.924;5.320;2023-07-20T12:50:50;21.90;99.30
25192;DHT22;13143;50.924;5.320;2023-07-20T12:53:16;21.90;99.00
25192;DHT22;13143;50.924;5.320;2023-07-20T12:55:42;21.90;98.60
25192;DHT22;13143;50.924;5.320;2023-07-20T12:58:09;21.90;98.50
25192;DHT22;13143;50.924;5.320;2023-07-20T13:00:35;22.00;98.50
25192;DHT22;13143;50.924;5.320;2023-07-20T13:03:02;22.00;98.60
25192;DHT22;13143;50.924;5.320;2023-07-20T13:05:32;22.00;98.40
25192;DHT22;13143;50.924;5.320;2023-07-20T13:07:59;22.10;98.50
25192;DHT22;13143;50.924;5.320;2023-07-20T13:10:25;22.10;97.80
25192;DHT22;13143;50.924;5.320;2023-07-20T13:12:51;22.10;97.50
25192;DHT22;13143;50.924;5.320;2023-07-20T13:15:17;22.10;97.50
25192;DHT22;13143;50.924;5.320;2023-07-20T13:17:44;22.20;97.20
25192;DHT22;13143;50.924;5.320;2023-07-20T13:20:12;22.20;96.70
25192;DHT22;13143;50.924;5.320;2023-07-20T13:22:39;22.20;96.40
25192;DHT22;13143;50.924;5.320;2023-07-20T13:25:06;22.20;96.50
25192;DHT22;13143;50.924;5.320;2023-07-20T13:27:33;22.20;96.50
25192;DHT22;13143;50.924;5.320;2023-07-20T13:29:59;22.20;96.10
25192;DHT22;13143;50.924;5.320;2023-07-20T13:32:27;22.20;95.90
25192;DHT22;13143;50.924;5.320;2023-07-20T13:34:53;22.20;96.00
25192;DHT22;13143;50.924;5.320;2023-07-20T13:37:19;22.30;96.10
25192;DHT22;13143;50.924;5.320;2023-07-20T13:39:45;22.30;95.90
25192;DHT22;13143;50.924;5.320;2023-07-20T13:42:11;22.30;95.10
25192;DHT22;13143;50.924;5.320;2023-07-20T13:44:38;22.30;94.80
25192;DHT22;13143;50.924;5.320;2023-07-20T13:47:04;22.30;94.50
25192;DHT22;13143;50.924;5.320;2023-07-20T13:49:33;22.30;94.60
25192;DHT22;13143;50.924;5.320;2023-07-20T13:52:00;22.40;95.00
25192;DHT22;13143;50.924;5.320;2023-07-20T13:54:26;22.40;95.00
25192;DHT22;13143;50.924;5.320;2023-07-20T13:56:52;22.40;95.20
25192;DHT22;13143;50.924;5.320;2023-07-20T13:59:18;22.40;94.10
25192;DHT22;13143;50.924;5.320;2023-07-20T14:01:45;22.40;94.10
25192;DHT22;13143;50.924;5.320;2023-07-20T14:04:12;22.50;94.10
25192;DHT22;13143;50.924;5.320;2023-07-20T14:06:38;22.50;94.00
25192;DHT22;13143;50.924;5.320;2023-07-20T14:09:04;22.50;93.90
25192;DHT22;13143;50.924;5.320;2023-07-20T14:11:30;22.50;93.80
25192;DHT22;13143;50.924;5.320;2023-07-20T14:13:56;22.60;93.80
25192;DHT22;13143;50.924;5.320;2023-07-20T14:16:24;22.60;93.60
25192;DHT22;13143;50.924;5.320;2023-07-20T14:18:51;22.60;92.50
25192;DHT22;13143;50.924;5.320;2023-07-20T14:21:18;22.60;92.30
25192;DHT22;13143;50.924;5.320;2023-07-20T14:23:50;22.60;92.00
25192;DHT22;13143;50.924;5.320;2023-07-20T14:26:16;22.70;92.00
25192;DHT22;13143;50.924;5.320;2023-07-20T14:28:42;22.70;91.60
25192;DHT22;13143;50.924;5.320;2023-07-20T14:31:09;22.70;91.00
25192;DHT22;13143;50.924;5.320;2023-07-20T14:33:35;22.70;91.10
25192;DHT22;13143;50.924;5.320;2023-07-20T14:36:02;22.70;90.80
25192;DHT22;13143;50.924;5.320;2023-07-20T14:38:30;22.80;90.50
25192;DHT22;13143;50.924;5.320;2023-07-20T14:40:56;22.80;90.40
25192;DHT22;13143;50.924;5.320;2023-07-20T14:43:23;22.80;90.00
25192;DHT22;13143;50.924;5.320;2023-07-20T14:45:49;22.80;90.00
25192;DHT22;13143;50.924;5.320;2023-07-20T14:48:15;22.80;90.00
25192;DHT22;13143;50.924;5.320;2023-07-20T14:50:41;22.80;90.10
25192;DHT22;13143;50.924;5.320;2023-07-20T14:53:08;22.90;90.10
25192;DHT22;13143;50.924;5.320;2023-07-20T14:55:35;22.90;89.80
25192;DHT22;13143;50.924;5.320;2023-07-20T14:58:01;22.90;89.40
25192;DHT22;13143;50.924;5.320;2023-07-20T15:00:27;22.90;88.90
25192;DHT22;13143;50.924;5.320;2023-07-20T15:02:53;22.90;89.30
25192;DHT22;13143;50.924;5.320;2023-07-20T15:05:22;22.90;88.80
25192;DHT22;13143;50.924;5.320;2023-07-20T15:07:50;23.00;88.10
25192;DHT22;13143;50.924;5.320;2023-07-20T15:10:16;23.00;88.40
25192;DHT22;13143;50.924;5.320;2023-07-20T15:12:42;23.00;88.80
25192;DHT22;13143;50.924;5.320;2023-07-20T15:15:11;23.00;89.20
25192;DHT22;13143;50.924;5.320;2023-07-20T15:17:44;23.00;89.30
25192;DHT22;13143;50.924;5.320;2023-07-20T15:20:11;23.00;88.60
25192;DHT22;13143;50.924;5.320;2023-07-20T15:22:37;23.10;89.00
25192;DHT22;13143;50.924;5.320;2023-07-20T15:25:06;23.10;89.20
25192;DHT22;13143;50.924;5.320;2023-07-20T15:27:33;23.10;89.80
25192;DHT22;13143;50.924;5.320;2023-07-20T15:29:59;23.10;89.90
25192;DHT22;13143;50.924;5.320;2023-07-20T15:32:25;23.10;90.00
25192;DHT22;13143;50.924;5.320;2023-07-20T15:34:51;23.10;90.10
25192;DHT22;13143;50.924;5.320;2023-07-20T15:37:17;23.10;90.30
25192;DHT22;13143;50.924;5.320;2023-07-20T15:39:47;23.10;90.50
25192;DHT22;13143;50.924;5.320;2023-07-20T15:42:13;23.10;90.70
25192;DHT22;13143;50.924;5.320;2023-07-20T15:44:39;23.10;90.80